sensor_id;sensor_type;location;lat;lon;timestamp;P1;durP1;ratioP1;P2;durP2;ratioP2
53765;SDS011;39682;51.490;7.310;2023-03-23T00:01:02;4.88;;;3.15;;
53765;SDS011;39682;51.490;7.310;2023-03-23T00:03:29;5.93;;;2.80;;
53765;SDS011;39682;51.490;7.310;2023-03-23T00:05:57;7.00;;;2.92;;
53765;SDS011;39682;51.490;7.310;2023-03-23T00:08:29;8.00;;;3.00;;
53765;SDS011;39682;51.490;7.310;2023-03-23T00:10:55;6.65;;;2.53;;
53765;SDS011;39682;51.490;7.310;2023-03-23T00:13:23;6.00;;;3.15;;
53765;SDS011;39682;51.490;7.310;2023-03-23T00:15:49;6.55;;;2.60;;
53765;SDS011;39682;51.490;7.310;2023-03-23T00:18:17;4.95;;;2.42;;
53765;SDS011;39682;51.490;7.310;2023-03-23T00:20:46;5.18;;;3.05;;
53765;SDS011;39682;51.490;7.310;2023-03-23T00:23:14;5.75;;;2.83;;
53765;SDS011;39682;51.490;7.310;2023-03-23T00:25:44;5.03;;;2.78;;
53765;SDS011;39682;51.490;7.310;2023-03-23T00:28:10;5.53;;;3.00;;
53765;SDS011;39682;51.490;7.310;2023-03-23T00:30:38;5.13;;;3.08;;
53765;SDS011;39682;51.490;7.310;2023-03-23T00:33:04;7.43;;;2.55;;
53765;SDS011;39682;51.490;7.310;2023-03-23T00:35:30;6.00;;;2.92;;
53765;SDS011;39682;51.490;7.310;2023-03-23T00:37:56;4.57;;;2.20;;
53765;SDS011;39682;51.490;7.310;2023-03-23T00:40:23;5.60;;;2.30;;
53765;SDS011;39682;51.490;7.310;2023-03-23T00:42:51;3.88;;;1.83;;
53765;SDS011;39682;51.490;7.310;2023-03-23T00:45:17;3.85;;;2.20;;
53765;SDS011;39682;51.490;7.310;2023-03-23T00:47:43;6.57;;;2.00;;
53765;SDS011;39682;51.490;7.310;2023-03-23T00:50:11;4.80;;;1.98;;
53765;SDS011;39682;51.490;7.310;2023-03-23T00:52:38;3.22;;;2.00;;
53765;SDS011;39682;51.490;7.310;2023-03-23T00:55:05;3.65;;;1.77;;
53765;SDS011;39682;51.490;7.310;2023-03-23T00:57:31;4.15;;;2.00;;
53765;SDS011;39682;51.490;7.310;2023-03-23T00:59:57;2.88;;;1.90;;
53765;SDS011;39682;51.490;7.310;2023-03-23T01:02:23;3.55;;;1.75;;
53765;SDS011;39682;51.490;7.310;2023-03-23T01:04:52;5.65;;;1.80;;
53765;SDS011;39682;51.490;7.310;2023-03-23T01:07:19;3.78;;;1.77;;
53765;SDS011;39682;51.490;7.310;2023-03-23T01:09:45;6.68;;;1.63;;
53765;SDS011;39682;51.490;7.310;2023-03-23T01:12:11;2.53;;;1.50;;
53765;SDS011;39682;51.490;7.310;2023-03-23T01:14:37;8.32;;;1.98;;
53765;SDS011;39682;51.490;7.310;2023-03-23T01:17:03;3.33;;;1.45;;
53765;SDS011;39682;51.490;7.310;2023-03-23T01:19:29;3.13;;;1.40;;
53765;SDS011;39682;51.490;7.310;2023-03-23T01:21:55;5.05;;;1.65;;
53765;SDS011;39682;51.490;7.310;2023-03-23T01:24:21;2.60;;;1.60;;
53765;SDS011;39682;51.490;7.310;2023-03-23T01:26:47;3.17;;;1.40;;
53765;SDS011;39682;51.490;7.310;2023-03-23T01:29:13;5.72;;;1.60;;
53765;SDS011;39682;51.490;7.310;2023-03-23T01:31:39;3.33;;;1.58;;
53765;SDS011;39682;51.490;7.310;2023-03-23T01:34:07;2.65;;;1.23;;
53765;SDS011;39682;51.490;7.310;2023-03-23T01:36:33;2.28;;;1.20;;
53765;SDS011;39682;51.490;7.310;2023-03-23T01:39:00;2.50;;;1.60;;
53765;SDS011;39682;51.490;7.310;2023-03-23T01:41:28;2.85;;;1.30;;
53765;SDS011;39682;51.490;7.310;2023-03-23T01:44:05;3.55;;;1.50;;
53765;SDS011;39682;51.490;7.310;2023-03-23T01:46:32;2.53;;;1.75;;
53765;SDS011;39682;51.490;7.310;2023-03-23T01:49:02;3.55;;;1.88;;
53765;SDS011;39682;51.490;7.310;2023-03-23T01:51:31;2.67;;;1.65;;
53765;SDS011;39682;51.490;7.310;2023-03-23T01:54:01;4.18;;;1.52;;
53765;SDS011;39682;51.490;7.310;2023-03-23T01:56:30;5.15;;;1.70;;
53765;SDS011;39682;51.490;7.310;2023-03-23T01:58:58;1.92;;;1.60;;
53765;SDS011;39682;51.490;7.310;2023-03-23T02:01:24;3.05;;;1.67;;
53765;SDS011;39682;51.490;7.310;2023-03-23T02:03:51;2.22;;;1.52;;
53765;SDS011;39682;51.490;7.310;2023-03-23T02:06:18;2.47;;;1.52;;
53765;SDS011;39682;51.490;7.310;2023-03-23T02:08:44;3.45;;;1.58;;
53765;SDS011;39682;51.490;7.310;2023-03-23T02:11:14;2.92;;;1.20;;
53765;SDS011;39682;51.490;7.310;2023-03-23T02:13:40;3.10;;;1.30;;
53765;SDS011;39682;51.490;7.310;2023-03-23T02:16:09;2.03;;;1.45;;
53765;SDS011;39682;51.490;7.310;2023-03-23T02:26:53;3.95;;;1.70;;
53765;SDS011;39682;51.490;7.310;2023-03-23T02:31:53;2.05;;;1.27;;
53765;SDS011;39682;51.490;7.310;2023-03-23T02:34:42;1.70;;;1.25;;
53765;SDS011;39682;51.490;7.310;2023-03-23T02:37:13;1.88;;;1.38;;
53765;SDS011;39682;51.490;7.310;2023-03-23T02:39:44;2.92;;;1.30;;
53765;SDS011;39682;51.490;7.310;2023-03-23T02:42:12;2.85;;;1.70;;
53765;SDS011;39682;51.490;7.310;2023-03-23T02:44:40;3.72;;;1.23;;
53765;SDS011;39682;51.490;7.310;2023-03-23T02:47:08;1.90;;;1.60;;
53765;SDS011;39682;51.490;7.310;2023-03-23T02:49:36;3.22;;;1.65;;
53765;SDS011;39682;51.490;7.310;2023-03-23T02:52:05;2.78;;;2.03;;
53765;SDS011;39682;51.490;7.310;2023-03-23T02:54:32;2.50;;;1.70;;
53765;SDS011;39682;51.490;7.310;2023-03-23T02:56:59;2.65;;;1.92;;
53765;SDS011;39682;51.490;7.310;2023-03-23T02:59:26;2.90;;;1.65;;
53765;SDS011;39682;51.490;7.310;2023-03-23T03:02:01;3.08;;;1.70;;
53765;SDS011;39682;51.490;7.310;2023-03-23T03:04:30;3.80;;;1.90;;
53765;SDS011;39682;51.490;7.310;2023-03-23T03:09:42;2.90;;;1.67;;
53765;SDS011;39682;51.490;7.310;2023-03-23T03:12:13;3.20;;;1.80;;
53765;SDS011;39682;51.490;7.310;2023-03-23T03:14:45;3.08;;;1.45;;
53765;SDS011;39682;51.490;7.310;2023-03-23T03:17:16;2.40;;;1.60;;
53765;SDS011;39682;51.490;7.310;2023-03-23T03:19:45;3.92;;;1.80;;
53765;SDS011;39682;51.490;7.310;2023-03-23T03:22:13;4.13;;;1.70;;
53765;SDS011;39682;51.490;7.310;2023-03-23T03:24:39;3.47;;;1.45;;
53765;SDS011;39682;51.490;7.310;2023-03-23T03:27:09;3.47;;;1.83;;
53765;SDS011;39682;51.490;7.310;2023-03-23T03:29:37;1.92;;;1.33;;
53765;SDS011;39682;51.490;7.310;2023-03-23T03:32:06;2.72;;;1.33;;
53765;SDS011;39682;51.490;7.310;2023-03-23T03:34:34;2.55;;;1.50;;
53765;SDS011;39682;51.490;7.310;2023-03-23T03:37:00;2.83;;;1.63;;
53765;SDS011;39682;51.490;7.310;2023-03-23T03:39:29;2.22;;;1.30;;
53765;SDS011;39682;51.490;7.310;2023-03-23T03:41:55;2.55;;;1.58;;
53765;SDS011;39682;51.490;7.310;2023-03-23T03:44:21;2.47;;;1.60;;
53765;SDS011;39682;51.490;7.310;2023-03-23T03:46:47;4.32;;;1.30;;
53765;SDS011;39682;51.490;7.310;2023-03-23T03:49:14;3.42;;;1.23;;
53765;SDS011;39682;51.490;7.310;2023-03-23T03:51:40;2.42;;;1.27;;
53765;SDS011;39682;51.490;7.310;2023-03-23T03:54:06;2.15;;;1.20;;
53765;SDS011;39682;51.490;7.310;2023-03-23T03:56:33;1.80;;;0.98;;
53765;SDS011;39682;51.490;7.310;2023-03-23T03:59:05;2.17;;;1.70;;
53765;SDS011;39682;51.490;7.310;2023-03-23T04:01:31;2.00;;;1.15;;
53765;SDS011;39682;51.490;7.310;2023-03-23T04:03:58;3.28;;;1.85;;
53765;SDS011;39682;51.490;7.310;2023-03-23T04:06:24;2.35;;;1.30;;
53765;SDS011;39682;51.490;7.310;2023-03-23T04:08:52;3.85;;;1.48;;
53765;SDS011;39682;51.490;7.310;2023-03-23T04:11:20;1.67;;;1.10;;
53765;SDS011;39682;51.490;7.310;2023-03-23T04:13:46;3.30;;;1.20;;
53765;SDS011;39682;51.490;7.310;2023-03-23T04:16:12;3.03;;;1.10;;
53765;SDS011;39682;51.490;7.310;2023-03-23T04:18:38;1.80;;;1.25;;
53765;SDS011;39682;51.490;7.310;2023-03-23T04:21:04;2.25;;;1.00;;
53765;SDS011;39682;51.490;7.310;2023-03-23T04:23:32;2.10;;;1.10;;
53765;SDS011;39682;51.490;7.310;2023-03-23T04:26:00;4.45;;;1.40;;
53765;SDS011;39682;51.490;7.310;2023-03-23T04:28:26;1.40;;;0.90;;
53765;SDS011;39682;51.490;7.310;2023-03-23T04:30:53;1.77;;;1.35;;
53765;SDS011;39682;51.490;7.310;2023-03-23T04:33:19;2.45;;;1.00;;
53765;SDS011;39682;51.490;7.310;2023-03-23T04:35:46;2.30;;;1.30;;
53765;SDS011;39682;51.490;7.310;2023-03-23T04:38:13;1.85;;;1.13;;
53765;SDS011;39682;51.490;7.310;2023-03-23T04:40:39;2.40;;;1.05;;
53765;SDS011;39682;51.490;7.310;2023-03-23T04:43:06;1.92;;;1.02;;
53765;SDS011;39682;51.490;7.310;2023-03-23T04:45:33;3.22;;;1.13;;
53765;SDS011;39682;51.490;7.310;2023-03-23T04:47:59;2.67;;;0.95;;
53765;SDS011;39682;51.490;7.310;2023-03-23T04:50:27;2.28;;;1.13;;
53765;SDS011;39682;51.490;7.310;2023-03-23T04:52:55;1.60;;;0.98;;
53765;SDS011;39682;51.490;7.310;2023-03-23T04:55:22;2.08;;;1.00;;
53765;SDS011;39682;51.490;7.310;2023-03-23T04:57:48;2.15;;;1.15;;
53765;SDS011;39682;51.490;7.310;2023-03-23T05:00:15;1.77;;;1.00;;
53765;SDS011;39682;51.490;7.310;2023-03-23T05:02:42;1.63;;;0.85;;
53765;SDS011;39682;51.490;7.310;2023-03-23T05:05:09;1.77;;;1.05;;
53765;SDS011;39682;51.490;7.310;2023-03-23T05:07:36;1.70;;;0.90;;
53765;SDS011;39682;51.490;7.310;2023-03-23T05:10:02;2.03;;;0.90;;
53765;SDS011;39682;51.490;7.310;2023-03-23T05:12:28;2.30;;;1.08;;
53765;SDS011;39682;51.490;7.310;2023-03-23T05:14:54;2.65;;;0.85;;
53765;SDS011;39682;51.490;7.310;2023-03-23T05:17:20;3.10;;;1.23;;
53765;SDS011;39682;51.490;7.310;2023-03-23T05:19:49;1.50;;;1.00;;
53765;SDS011;39682;51.490;7.310;2023-03-23T05:22:15;1.50;;;0.88;;
53765;SDS011;39682;51.490;7.310;2023-03-23T05:24:42;2.47;;;1.20;;
53765;SDS011;39682;51.490;7.310;2023-03-23T05:27:11;2.30;;;1.13;;
53765;SDS011;39682;51.490;7.310;2023-03-23T05:29:37;2.03;;;1.00;;
53765;SDS011;39682;51.490;7.310;2023-03-23T05:32:05;1.60;;;1.13;;
53765;SDS011;39682;51.490;7.310;2023-03-23T05:34:32;2.20;;;1.25;;
53765;SDS011;39682;51.490;7.310;2023-03-23T05:36:59;1.60;;;1.08;;
53765;SDS011;39682;51.490;7.310;2023-03-23T05:39:25;2.53;;;0.80;;
53765;SDS011;39682;51.490;7.310;2023-03-23T05:41:51;1.48;;;0.88;;
53765;SDS011;39682;51.490;7.310;2023-03-23T05:44:18;1.48;;;0.88;;
53765;SDS011;39682;51.490;7.310;2023-03-23T05:46:44;3.92;;;1.15;;
53765;SDS011;39682;51.490;7.310;2023-03-23T05:49:10;2.08;;;0.70;;
53765;SDS011;39682;51.490;7.310;2023-03-23T05:51:36;1.25;;;0.75;;
53765;SDS011;39682;51.490;7.310;2023-03-23T05:54:02;2.22;;;0.90;;
53765;SDS011;39682;51.490;7.310;2023-03-23T05:56:28;2.40;;;0.90;;
53765;SDS011;39682;51.490;7.310;2023-03-23T05:58:56;2.10;;;1.10;;
53765;SDS011;39682;51.490;7.310;2023-03-23T06:01:21;2.55;;;1.00;;
53765;SDS011;39682;51.490;7.310;2023-03-23T06:03:49;2.20;;;1.02;;
53765;SDS011;39682;51.490;7.310;2023-03-23T06:06:19;2.95;;;0.90;;
53765;SDS011;39682;51.490;7.310;2023-03-23T06:08:45;3.03;;;1.15;;
53765;SDS011;39682;51.490;7.310;2023-03-23T06:11:11;4.03;;;1.60;;
53765;SDS011;39682;51.490;7.310;2023-03-23T06:13:38;2.58;;;1.50;;
53765;SDS011;39682;51.490;7.310;2023-03-23T06:16:04;1.90;;;1.08;;
53765;SDS011;39682;51.490;7.310;2023-03-23T06:18:30;2.90;;;1.42;;
53765;SDS011;39682;51.490;7.310;2023-03-23T06:20:58;1.98;;;1.25;;
53765;SDS011;39682;51.490;7.310;2023-03-23T06:23:25;3.08;;;1.35;;
53765;SDS011;39682;51.490;7.310;2023-03-23T06:25:55;4.53;;;2.05;;
53765;SDS011;39682;51.490;7.310;2023-03-23T06:28:22;2.97;;;1.90;;
53765;SDS011;39682;51.490;7.310;2023-03-23T06:30:49;4.00;;;1.63;;
53765;SDS011;39682;51.490;7.310;2023-03-23T06:33:15;5.22;;;2.50;;
53765;SDS011;39682;51.490;7.310;2023-03-23T06:35:42;7.07;;;2.70;;
53765;SDS011;39682;51.490;7.310;2023-03-23T06:38:08;2.83;;;1.70;;
53765;SDS011;39682;51.490;7.310;2023-03-23T06:40:34;3.40;;;1.50;;
53765;SDS011;39682;51.490;7.310;2023-03-23T06:43:01;2.42;;;1.40;;
53765;SDS011;39682;51.490;7.310;2023-03-23T06:45:27;3.58;;;1.95;;
53765;SDS011;39682;51.490;7.310;2023-03-23T06:47:53;2.65;;;1.50;;
53765;SDS011;39682;51.490;7.310;2023-03-23T06:50:19;3.72;;;1.33;;
53765;SDS011;39682;51.490;7.310;2023-03-23T06:52:46;2.38;;;1.63;;
53765;SDS011;39682;51.490;7.310;2023-03-23T06:55:12;4.55;;;1.33;;
53765;SDS011;39682;51.490;7.310;2023-03-23T06:57:39;2.75;;;1.20;;
53765;SDS011;39682;51.490;7.310;2023-03-23T07:00:05;1.70;;;1.40;;
53765;SDS011;39682;51.490;7.310;2023-03-23T07:02:33;3.38;;;1.60;;
53765;SDS011;39682;51.490;7.310;2023-03-23T07:04:59;3.45;;;1.55;;
53765;SDS011;39682;51.490;7.310;2023-03-23T07:07:26;3.30;;;1.35;;
53765;SDS011;39682;51.490;7.310;2023-03-23T07:09:52;2.25;;;1.10;;
53765;SDS011;39682;51.490;7.310;2023-03-23T07:12:18;4.07;;;1.42;;
53765;SDS011;39682;51.490;7.310;2023-03-23T07:14:44;4.00;;;1.23;;
53765;SDS011;39682;51.490;7.310;2023-03-23T07:17:10;4.88;;;2.00;;
53765;SDS011;39682;51.490;7.310;2023-03-23T07:19:36;4.75;;;1.88;;
53765;SDS011;39682;51.490;7.310;2023-03-23T07:22:03;3.08;;;1.02;;
53765;SDS011;39682;51.490;7.310;2023-03-23T07:24:30;4.47;;;1.38;;
53765;SDS011;39682;51.490;7.310;2023-03-23T07:26:56;4.55;;;1.27;;
53765;SDS011;39682;51.490;7.310;2023-03-23T07:29:22;4.75;;;1.40;;
53765;SDS011;39682;51.490;7.310;2023-03-23T07:31:48;5.43;;;1.48;;
53765;SDS011;39682;51.490;7.310;2023-03-23T07:34:16;5.10;;;1.50;;
53765;SDS011;39682;51.490;7.310;2023-03-23T07:36:42;3.90;;;1.30;;
53765;SDS011;39682;51.490;7.310;2023-03-23T07:39:08;2.50;;;1.15;;
53765;SDS011;39682;51.490;7.310;2023-03-23T07:41:34;4.25;;;0.95;;
53765;SDS011;39682;51.490;7.310;2023-03-23T07:44:00;1.67;;;0.93;;
53765;SDS011;39682;51.490;7.310;2023-03-23T07:46:26;4.18;;;1.00;;
53765;SDS011;39682;51.490;7.310;2023-03-23T07:48:52;3.70;;;0.88;;
53765;SDS011;39682;51.490;7.310;2023-03-23T07:51:18;3.58;;;1.35;;
53765;SDS011;39682;51.490;7.310;2023-03-23T07:53:44;4.30;;;1.10;;
53765;SDS011;39682;51.490;7.310;2023-03-23T07:56:11;1.38;;;0.88;;
53765;SDS011;39682;51.490;7.310;2023-03-23T07:58:39;2.28;;;0.90;;
53765;SDS011;39682;51.490;7.310;2023-03-23T08:01:06;3.60;;;1.00;;
53765;SDS011;39682;51.490;7.310;2023-03-23T08:03:32;2.22;;;1.00;;
53765;SDS011;39682;51.490;7.310;2023-03-23T08:05:59;2.97;;;0.95;;
53765;SDS011;39682;51.490;7.310;2023-03-23T08:08:25;4.43;;;0.95;;
53765;SDS011;39682;51.490;7.310;2023-03-23T08:10:51;4.97;;;1.20;;
53765;SDS011;39682;51.490;7.310;2023-03-23T08:13:17;3.80;;;1.10;;
53765;SDS011;39682;51.490;7.310;2023-03-23T08:15:44;1.80;;;0.68;;
53765;SDS011;39682;51.490;7.310;2023-03-23T08:18:10;2.75;;;0.80;;
53765;SDS011;39682;51.490;7.310;2023-03-23T08:20:36;5.03;;;0.80;;
53765;SDS011;39682;51.490;7.310;2023-03-23T08:23:03;2.25;;;0.50;;
53765;SDS011;39682;51.490;7.310;2023-03-23T08:25:29;5.13;;;1.02;;
53765;SDS011;39682;51.490;7.310;2023-03-23T08:27:59;6.18;;;1.70;;
53765;SDS011;39682;51.490;7.310;2023-03-23T08:30:29;5.65;;;0.98;;
53765;SDS011;39682;51.490;7.310;2023-03-23T08:32:56;4.95;;;0.98;;
53765;SDS011;39682;51.490;7.310;2023-03-23T08:35:22;2.00;;;0.75;;
53765;SDS011;39682;51.490;7.310;2023-03-23T08:37:49;1.63;;;0.70;;
53765;SDS011;39682;51.490;7.310;2023-03-23T08:40:19;1.70;;;0.50;;
53765;SDS011;39682;51.490;7.310;2023-03-23T08:42:46;3.30;;;0.98;;
53765;SDS011;39682;51.490;7.310;2023-03-23T08:45:14;3.92;;;0.80;;
53765;SDS011;39682;51.490;7.310;2023-03-23T08:47:41;11.38;;;1.90;;
53765;SDS011;39682;51.490;7.310;2023-03-23T08:50:13;2.00;;;0.80;;
53765;SDS011;39682;51.490;7.310;2023-03-23T08:52:39;2.33;;;0.80;;
53765;SDS011;39682;51.490;7.310;2023-03-23T08:55:06;3.95;;;0.82;;
53765;SDS011;39682;51.490;7.310;2023-03-23T08:57:33;6.13;;;1.42;;
53765;SDS011;39682;51.490;7.310;2023-03-23T09:00:00;4.50;;;0.95;;
53765;SDS011;39682;51.490;7.310;2023-03-23T09:02:38;4.90;;;0.90;;
53765;SDS011;39682;51.490;7.310;2023-03-23T09:05:04;2.00;;;0.70;;
53765;SDS011;39682;51.490;7.310;2023-03-23T09:07:31;3.45;;;1.13;;
53765;SDS011;39682;51.490;7.310;2023-03-23T09:09:57;4.45;;;0.88;;
53765;SDS011;39682;51.490;7.310;2023-03-23T09:12:23;4.40;;;0.80;;
53765;SDS011;39682;51.490;7.310;2023-03-23T09:14:49;3.72;;;1.40;;
53765;SDS011;39682;51.490;7.310;2023-03-23T09:17:15;3.67;;;0.65;;
53765;SDS011;39682;51.490;7.310;2023-03-23T09:19:41;5.28;;;1.05;;
53765;SDS011;39682;51.490;7.310;2023-03-23T09:22:07;3.05;;;0.63;;
53765;SDS011;39682;51.490;7.310;2023-03-23T09:24:33;4.85;;;1.55;;
53765;SDS011;39682;51.490;7.310;2023-03-23T09:27:00;2.33;;;0.80;;
53765;SDS011;39682;51.490;7.310;2023-03-23T09:29:26;5.63;;;1.85;;
53765;SDS011;39682;51.490;7.310;2023-03-23T09:31:53;3.40;;;0.90;;
53765;SDS011;39682;51.490;7.310;2023-03-23T09:34:19;4.55;;;0.95;;
53765;SDS011;39682;51.490;7.310;2023-03-23T09:36:45;6.85;;;0.90;;
53765;SDS011;39682;51.490;7.310;2023-03-23T09:39:11;5.70;;;1.42;;
53765;SDS011;39682;51.490;7.310;2023-03-23T09:49:35;3.22;;;0.82;;
53765;SDS011;39682;51.490;7.310;2023-03-23T09:52:19;3.67;;;1.35;;
53765;SDS011;39682;51.490;7.310;2023-03-23T09:54:47;4.13;;;1.05;;
53765;SDS011;39682;51.490;7.310;2023-03-23T09:57:20;4.35;;;0.90;;
53765;SDS011;39682;51.490;7.310;2023-03-23T10:02:15;4.47;;;1.00;;
53765;SDS011;39682;51.490;7.310;2023-03-23T10:04:46;2.25;;;0.85;;
53765;SDS011;39682;51.490;7.310;2023-03-23T10:07:13;6.88;;;1.55;;
53765;SDS011;39682;51.490;7.310;2023-03-23T10:09:41;7.78;;;0.93;;
53765;SDS011;39682;51.490;7.310;2023-03-23T10:12:10;6.10;;;1.13;;
53765;SDS011;39682;51.490;7.310;2023-03-23T10:14:55;4.13;;;0.73;;
53765;SDS011;39682;51.490;7.310;2023-03-23T10:17:28;1.37;;;0.80;;
53765;SDS011;39682;51.490;7.310;2023-03-23T10:20:01;2.85;;;0.60;;
53765;SDS011;39682;51.490;7.310;2023-03-23T10:22:35;1.25;;;0.70;;
53765;SDS011;39682;51.490;7.310;2023-03-23T10:27:33;5.80;;;1.17;;
53765;SDS011;39682;51.490;7.310;2023-03-23T10:32:40;6.22;;;0.70;;
53765;SDS011;39682;51.490;7.310;2023-03-23T10:35:10;3.25;;;0.90;;
53765;SDS011;39682;51.490;7.310;2023-03-23T10:37:39;5.57;;;1.00;;
53765;SDS011;39682;51.490;7.310;2023-03-23T10:40:17;5.55;;;1.38;;
53765;SDS011;39682;51.490;7.310;2023-03-23T10:42:44;1.20;;;0.52;;
53765;SDS011;39682;51.490;7.310;2023-03-23T10:47:40;4.85;;;1.02;;
53765;SDS011;39682;51.490;7.310;2023-03-23T10:50:10;3.25;;;1.33;;
53765;SDS011;39682;51.490;7.310;2023-03-23T10:52:38;2.85;;;0.85;;
53765;SDS011;39682;51.490;7.310;2023-03-23T10:55:07;8.00;;;1.05;;
53765;SDS011;39682;51.490;7.310;2023-03-23T10:57:34;4.68;;;1.20;;
53765;SDS011;39682;51.490;7.310;2023-03-23T11:02:35;2.28;;;1.00;;
53765;SDS011;39682;51.490;7.310;2023-03-23T11:05:04;3.50;;;1.60;;
53765;SDS011;39682;51.490;7.310;2023-03-23T11:07:32;2.58;;;1.40;;
53765;SDS011;39682;51.490;7.310;2023-03-23T11:10:05;7.03;;;1.70;;
53765;SDS011;39682;51.490;7.310;2023-03-23T11:12:33;1.83;;;0.90;;
53765;SDS011;39682;51.490;7.310;2023-03-23T11:15:04;3.25;;;0.90;;
53765;SDS011;39682;51.490;7.310;2023-03-23T11:17:36;1.17;;;0.50;;
53765;SDS011;39682;51.490;7.310;2023-03-23T11:20:09;1.88;;;0.90;;
53765;SDS011;39682;51.490;7.310;2023-03-23T11:22:35;3.58;;;1.20;;
53765;SDS011;39682;51.490;7.310;2023-03-23T11:25:03;2.70;;;1.40;;
53765;SDS011;39682;51.490;7.310;2023-03-23T11:27:29;4.15;;;1.73;;
53765;SDS011;39682;51.490;7.310;2023-03-23T11:30:00;2.53;;;1.48;;
53765;SDS011;39682;51.490;7.310;2023-03-23T11:32:35;4.35;;;2.67;;
53765;SDS011;39682;51.490;7.310;2023-03-23T11:35:06;5.38;;;1.98;;
53765;SDS011;39682;51.490;7.310;2023-03-23T11:37:41;4.03;;;1.65;;
53765;SDS011;39682;51.490;7.310;2023-03-23T11:42:38;1.90;;;1.08;;
53765;SDS011;39682;51.490;7.310;2023-03-23T11:47:47;8.35;;;2.30;;
53765;SDS011;39682;51.490;7.310;2023-03-23T11:50:18;3.13;;;1.58;;
53765;SDS011;39682;51.490;7.310;2023-03-23T11:52:55;5.97;;;2.88;;
53765;SDS011;39682;51.490;7.310;2023-03-23T11:57:50;7.72;;;3.67;;
53765;SDS011;39682;51.490;7.310;2023-03-23T12:00:18;6.57;;;4.70;;
53765;SDS011;39682;51.490;7.310;2023-03-23T12:05:34;7.07;;;4.13;;
53765;SDS011;39682;51.490;7.310;2023-03-23T12:10:31;6.40;;;3.00;;
53765;SDS011;39682;51.490;7.310;2023-03-23T12:20:46;3.55;;;1.85;;
53765;SDS011;39682;51.490;7.310;2023-03-23T12:33:42;3.75;;;1.23;;
53765;SDS011;39682;51.490;7.310;2023-03-23T12:38:54;3.05;;;0.85;;
53765;SDS011;39682;51.490;7.310;2023-03-23T12:41:27;4.15;;;1.55;;
53765;SDS011;39682;51.490;7.310;2023-03-23T12:44:08;2.88;;;0.90;;
53765;SDS011;39682;51.490;7.310;2023-03-23T12:46:42;3.08;;;1.00;;
53765;SDS011;39682;51.490;7.310;2023-03-23T12:56:47;3.47;;;1.27;;
53765;SDS011;39682;51.490;7.310;2023-03-23T13:01:53;2.80;;;0.70;;
53765;SDS011;39682;51.490;7.310;2023-03-23T13:04:22;4.72;;;1.17;;
53765;SDS011;39682;51.490;7.310;2023-03-23T13:06:51;1.70;;;0.80;;
53765;SDS011;39682;51.490;7.310;2023-03-23T13:09:32;2.30;;;0.80;;
53765;SDS011;39682;51.490;7.310;2023-03-23T13:12:02;2.50;;;1.13;;
53765;SDS011;39682;51.490;7.310;2023-03-23T13:16:58;1.90;;;1.00;;
53765;SDS011;39682;51.490;7.310;2023-03-23T13:24:24;4.53;;;1.38;;
53765;SDS011;39682;51.490;7.310;2023-03-23T13:26:52;3.22;;;1.23;;
53765;SDS011;39682;51.490;7.310;2023-03-23T13:29:23;2.70;;;1.23;;
53765;SDS011;39682;51.490;7.310;2023-03-23T13:31:50;2.88;;;1.38;;
53765;SDS011;39682;51.490;7.310;2023-03-23T13:34:23;3.38;;;1.20;;
53765;SDS011;39682;51.490;7.310;2023-03-23T13:37:06;4.68;;;0.98;;
53765;SDS011;39682;51.490;7.310;2023-03-23T13:39:37;3.65;;;1.20;;
53765;SDS011;39682;51.490;7.310;2023-03-23T13:44:44;3.53;;;0.75;;
53765;SDS011;39682;51.490;7.310;2023-03-23T13:49:53;3.10;;;1.02;;
53765;SDS011;39682;51.490;7.310;2023-03-23T13:52:24;2.60;;;0.68;;
53765;SDS011;39682;51.490;7.310;2023-03-23T13:54:51;4.32;;;0.98;;
53765;SDS011;39682;51.490;7.310;2023-03-23T13:59:55;3.72;;;1.25;;
53765;SDS011;39682;51.490;7.310;2023-03-23T14:04:53;5.07;;;1.33;;
53765;SDS011;39682;51.490;7.310;2023-03-23T14:07:19;6.15;;;1.42;;
53765;SDS011;39682;51.490;7.310;2023-03-23T14:09:45;5.55;;;1.33;;
53765;SDS011;39682;51.490;7.310;2023-03-23T14:12:19;3.90;;;1.05;;
53765;SDS011;39682;51.490;7.310;2023-03-23T14:14:47;2.67;;;1.17;;
53765;SDS011;39682;51.490;7.310;2023-03-23T14:17:16;3.42;;;1.23;;
53765;SDS011;39682;51.490;7.310;2023-03-23T14:19:44;4.25;;;1.55;;
53765;SDS011;39682;51.490;7.310;2023-03-23T14:24:51;3.00;;;1.60;;
53765;SDS011;39682;51.490;7.310;2023-03-23T14:27:19;4.15;;;2.55;;
53765;SDS011;39682;51.490;7.310;2023-03-23T14:29:45;4.65;;;1.85;;
53765;SDS011;39682;51.490;7.310;2023-03-23T14:32:18;1.80;;;1.48;;
53765;SDS011;39682;51.490;7.310;2023-03-23T14:34:50;3.78;;;2.03;;
53765;SDS011;39682;51.490;7.310;2023-03-23T14:37:17;3.13;;;2.20;;
53765;SDS011;39682;51.490;7.310;2023-03-23T14:39:44;3.60;;;2.08;;
53765;SDS011;39682;51.490;7.310;2023-03-23T14:42:12;4.30;;;2.60;;
53765;SDS011;39682;51.490;7.310;2023-03-23T14:44:39;4.10;;;2.10;;
53765;SDS011;39682;51.490;7.310;2023-03-23T14:47:07;4.13;;;2.10;;
53765;SDS011;39682;51.490;7.310;2023-03-23T14:49:37;8.88;;;3.03;;
53765;SDS011;39682;51.490;7.310;2023-03-23T14:52:08;6.78;;;2.60;;
53765;SDS011;39682;51.490;7.310;2023-03-23T14:54:35;3.80;;;2.00;;
53765;SDS011;39682;51.490;7.310;2023-03-23T14:57:05;4.07;;;2.15;;
53765;SDS011;39682;51.490;7.310;2023-03-23T14:59:35;4.07;;;1.88;;
53765;SDS011;39682;51.490;7.310;2023-03-23T15:02:01;4.00;;;2.03;;
53765;SDS011;39682;51.490;7.310;2023-03-23T15:04:27;4.25;;;2.17;;
53765;SDS011;39682;51.490;7.310;2023-03-23T15:06:58;5.97;;;2.00;;
53765;SDS011;39682;51.490;7.310;2023-03-23T15:09:25;4.38;;;2.40;;
53765;SDS011;39682;51.490;7.310;2023-03-23T15:11:55;5.70;;;2.10;;
53765;SDS011;39682;51.490;7.310;2023-03-23T15:14:24;2.83;;;1.83;;
53765;SDS011;39682;51.490;7.310;2023-03-23T15:16:52;5.57;;;2.20;;
53765;SDS011;39682;51.490;7.310;2023-03-23T15:19:21;5.07;;;2.15;;
53765;SDS011;39682;51.490;7.310;2023-03-23T15:21:50;6.03;;;1.75;;
53765;SDS011;39682;51.490;7.310;2023-03-23T15:26:45;3.90;;;2.00;;
53765;SDS011;39682;51.490;7.310;2023-03-23T15:31:45;4.38;;;1.50;;
53765;SDS011;39682;51.490;7.310;2023-03-23T15:34:20;5.13;;;1.65;;
53765;SDS011;39682;51.490;7.310;2023-03-23T15:39:12;3.80;;;1.40;;
53765;SDS011;39682;51.490;7.310;2023-03-23T15:41:46;3.67;;;1.30;;
53765;SDS011;39682;51.490;7.310;2023-03-23T15:44:18;4.10;;;1.17;;
53765;SDS011;39682;51.490;7.310;2023-03-23T15:46:49;5.60;;;1.13;;
53765;SDS011;39682;51.490;7.310;2023-03-23T15:49:15;5.22;;;1.35;;
53765;SDS011;39682;51.490;7.310;2023-03-23T15:51:42;3.08;;;1.27;;
53765;SDS011;39682;51.490;7.310;2023-03-23T15:54:10;3.22;;;1.10;;
53765;SDS011;39682;51.490;7.310;2023-03-23T15:56:38;2.95;;;1.02;;
53765;SDS011;39682;51.490;7.310;2023-03-23T15:59:04;2.40;;;0.82;;
53765;SDS011;39682;51.490;7.310;2023-03-23T16:01:30;4.47;;;1.30;;
53765;SDS011;39682;51.490;7.310;2023-03-23T16:03:57;5.15;;;1.08;;
53765;SDS011;39682;51.490;7.310;2023-03-23T16:06:24;3.25;;;1.25;;
53765;SDS011;39682;51.490;7.310;2023-03-23T16:08:54;6.70;;;1.63;;
53765;SDS011;39682;51.490;7.310;2023-03-23T16:11:21;4.93;;;1.50;;
53765;SDS011;39682;51.490;7.310;2023-03-23T16:13:47;3.47;;;1.30;;
53765;SDS011;39682;51.490;7.310;2023-03-23T16:16:15;3.83;;;1.42;;
53765;SDS011;39682;51.490;7.310;2023-03-23T16:18:42;3.90;;;0.98;;
53765;SDS011;39682;51.490;7.310;2023-03-23T16:21:08;4.70;;;1.08;;
53765;SDS011;39682;51.490;7.310;2023-03-23T16:23:34;3.15;;;1.40;;
53765;SDS011;39682;51.490;7.310;2023-03-23T16:26:00;3.78;;;1.60;;
53765;SDS011;39682;51.490;7.310;2023-03-23T16:28:26;5.20;;;1.40;;
53765;SDS011;39682;51.490;7.310;2023-03-23T16:30:52;2.88;;;0.80;;
53765;SDS011;39682;51.490;7.310;2023-03-23T16:33:18;3.80;;;1.20;;
53765;SDS011;39682;51.490;7.310;2023-03-23T16:35:44;5.18;;;1.42;;
53765;SDS011;39682;51.490;7.310;2023-03-23T16:38:14;6.75;;;1.15;;